Applegate, Michigan
Current Conditions -  °F | °C
As of 6:25 AM on Friday 31 Oct 2014 (Local Time) from CYZR Reporting Station
Overcast Overcast  
Wind Chill: 42°   Ceiling: 6000
Heat Index: 45°   Visibility: 9mi
Dew Point: 39°   Wind: 5mph
Humidity: 81%   Direction: 200°SSW
Pressure: 29.9"   Gusts: NA
Location:  43.36°N, 82.64°W
Report Text: CYZR 311025Z AUTO 20004KT 9SM FEW048 BKN060 OVC110 07/04 A2990 RMK SLP130
Loading
Personal Weather Stations






























Interactive Weather Map New forecast layout! Learn more

10-Day Weather Forecast

Advertisements
Track Severe Weather on mobile